MUHA/HAV METAR and TAF weather

Enter ICAO airport designator
Station Type Date Time Source
MUHA METAR 2019/02/17 06:55 UTC NOAA

MUHA 170655Z 14003KT 090V210 9000 FEW030 23/22 Q1014


Station Type Date Time Source
MUHA Decoded METAR 2019/02/17 06:55 UTC NOAA

Aeropuerto Jose Marti, Rancho-Boyeros, Habana, Cuba (MUHA) 22-59N 082-24W 75M
Feb 17, 2019 - 01:55 AM EST / 2019.02.17 0655 UTC
Wind: from the SE (140 degrees) at 3 MPH (3 KT) (direction variable):0
Visibility: 5 mile(s):0
Sky conditions: mostly clear
Temperature: 73 F (23 C)
Dew Point: 71 F (22 C)
Relative Humidity: 94%
Pressure (altimeter): 29.94 in. Hg (1014 hPa)
ob: MUHA 170655Z 14003KT 090V210 9000 FEW030 23/22 Q1014
cycle: 7

Station Type Date Time Source
MUHA TAF 2019/02/17 06:06 UTC NOAA

TAF MUHA 170500Z 1706/1806 16005KT 9000 FEW030
BECMG 1716/1718 17013KT
BECMG 1802/1805 17004KT


Example: see airport list